Nyala, Nevada Weather observations

Data are for observation ending at time listed.
 Day   Time    Ave.   Ave.  Ave.  Vector   Max.   Stn.    Total    Solar   Ave.  
  of    of     Air    Rel.  Wind   Wind    Wind   Baro.  Precip.   Rad.    Soil  
Year   Day     Temp.  Hum.  Speed  Dir.    Gust   Pres.                    Temp. 
2015   (PST)    F      %     mph   deg.    mph     mb.     in.     W/m2     F   
------------------------------------------------------------------------------
  85   20:00   60.2    27    4.9   122      9.3    858     0.00       0    63.4
  85   21:00   57.0    29    3.1   110      8.7    858     0.00       0    62.4
  85   22:00   48.5    40    0.6    18      2.6    858     0.00       0    61.5
  85   23:00   47.0    44    0.3   138      3.2    859     0.00       0    60.4
  86    0:00   46.9    43    1.0   148      3.7    859     0.00       0    59.4
  86    1:00   41.8    52    2.5   175      5.1    859     0.00       0    58.5
  86    2:00   41.8    52    2.8   170      8.3    859     0.00       0    57.5
  86    3:00   39.8    56    1.2   164      4.5    859     0.00       0    56.7
  86    4:00   39.3    58    1.4   153      5.0    859     0.00       0    55.8
  86    5:00   38.3    59    0.4    76      1.9    859     0.00       0    55.0
  86    6:00   36.5    62    0.2   116      3.5    859     0.00       1    54.2
  86    7:00   42.7    53    1.5   143      4.0    859     0.00      58    53.5
  86    8:00   53.5    35    0.1   290      2.2    859     0.00     149    53.1
  86    9:00   59.5    28    1.9   236      7.1    859     0.00     239    53.3
  86   10:00   64.7    23    1.3   332      5.7    859     0.00     310    53.8
  86   11:00   69.8    19    1.4   325      5.6    859     0.00     360    54.6
  86   12:00   73.3    16    2.1   334      7.5    858     0.00     382    55.9
  86   13:00   76.2    15    2.2    37      8.3    857     0.00     377    58.5
  86   14:00   78.7    13    2.6   340     11.8    856     0.00     345    62.0
  86   15:00   79.6    12    3.6   255     11.2    855     0.00     288    65.1
  86   16:00   79.9    11    3.9   240     12.3    854     0.00     211    66.1
  86   17:00   79.6    11    5.0   233     10.7    854     0.00     121    66.1
  86   18:00   78.0    12    0.9   281      6.9    854     0.00      35    66.8
  86   19:00   67.5    18    4.3   126      9.4    854     0.00       0    67.0

Return to Nyala, Nevada graphs page.


Western Regional Climate Center,wrcc@dri.edu